sensor_id;sensor_type;location;lat;lon;timestamp;temperature;humidity
22503;DHT22;11418;48.118;9.992;2023-05-10T00:02:21;12.70;99.90
22503;DHT22;11418;48.118;9.992;2023-05-10T00:06:21;12.70;99.90
22503;DHT22;11418;48.118;9.992;2023-05-10T00:10:22;12.70;99.90
22503;DHT22;11418;48.118;9.992;2023-05-10T00:14:29;12.60;99.90
22503;DHT22;11418;48.118;9.992;2023-05-10T00:18:30;12.70;99.90
22503;DHT22;11418;48.118;9.992;2023-05-10T00:22:33;12.60;99.90
22503;DHT22;11418;48.118;9.992;2023-05-10T00:26:42;12.70;99.90
22503;DHT22;11418;48.118;9.992;2023-05-10T00:30:43;12.70;99.90
22503;DHT22;11418;48.118;9.992;2023-05-10T00:34:43;12.60;99.90
22503;DHT22;11418;48.118;9.992;2023-05-10T00:38:47;12.50;99.90
22503;DHT22;11418;48.118;9.992;2023-05-10T00:42:51;12.60;99.90
22503;DHT22;11418;48.118;9.992;2023-05-10T00:47:23;12.60;99.90
22503;DHT22;11418;48.118;9.992;2023-05-10T00:51:27;12.50;99.90
22503;DHT22;11418;48.118;9.992;2023-05-10T00:55:28;12.50;99.90
22503;DHT22;11418;48.118;9.992;2023-05-10T00:59:29;12.50;99.90
22503;DHT22;11418;48.118;9.992;2023-05-10T01:03:29;12.50;99.90
22503;DHT22;11418;48.118;9.992;2023-05-10T01:07:31;12.30;99.90
22503;DHT22;11418;48.118;9.992;2023-05-10T01:11:38;12.40;99.90
22503;DHT22;11418;48.118;9.992;2023-05-10T01:15:44;12.30;99.90
22503;DHT22;11418;48.118;9.992;2023-05-10T01:19:49;12.30;99.90
22503;DHT22;11418;48.118;9.992;2023-05-10T01:28:35;12.30;99.90
22503;DHT22;11418;48.118;9.992;2023-05-10T01:32:35;12.30;99.90
22503;DHT22;11418;48.118;9.992;2023-05-10T01:36:55;12.30;99.90
22503;DHT22;11418;48.118;9.992;2023-05-10T01:41:13;12.40;99.90
22503;DHT22;11418;48.118;9.992;2023-05-10T01:45:28;12.40;99.90
22503;DHT22;11418;48.118;9.992;2023-05-10T01:49:31;12.20;99.90
22503;DHT22;11418;48.118;9.992;2023-05-10T01:53:33;12.30;99.90
22503;DHT22;11418;48.118;9.992;2023-05-10T01:57:36;12.40;99.90
22503;DHT22;11418;48.118;9.992;2023-05-10T02:01:43;12.40;99.90
22503;DHT22;11418;48.118;9.992;2023-05-10T02:05:46;12.30;99.90
22503;DHT22;11418;48.118;9.992;2023-05-10T02:09:48;12.40;99.90
22503;DHT22;11418;48.118;9.992;2023-05-10T02:13:56;12.60;99.90
22503;DHT22;11418;48.118;9.992;2023-05-10T02:18:02;12.50;99.90
22503;DHT22;11418;48.118;9.992;2023-05-10T02:22:06;12.50;99.90
22503;DHT22;11418;48.118;9.992;2023-05-10T02:26:11;12.40;99.90
22503;DHT22;11418;48.118;9.992;2023-05-10T02:30:13;12.30;99.90
22503;DHT22;11418;48.118;9.992;2023-05-10T02:34:17;12.30;99.90
22503;DHT22;11418;48.118;9.992;2023-05-10T02:38:18;12.40;99.90
22503;DHT22;11418;48.118;9.992;2023-05-10T02:42:23;12.40;99.90
22503;DHT22;11418;48.118;9.992;2023-05-10T02:46:24;12.40;99.90
22503;DHT22;11418;48.118;9.992;2023-05-10T02:50:28;12.40;99.90
22503;DHT22;11418;48.118;9.992;2023-05-10T02:54:31;12.30;99.90
22503;DHT22;11418;48.118;9.992;2023-05-10T02:58:35;12.30;99.90
22503;DHT22;11418;48.118;9.992;2023-05-10T03:02:36;12.30;99.90
22503;DHT22;11418;48.118;9.992;2023-05-10T03:06:42;12.30;99.90
22503;DHT22;11418;48.118;9.992;2023-05-10T03:11:06;12.30;99.90
22503;DHT22;11418;48.118;9.992;2023-05-10T03:19:21;12.20;99.90
22503;DHT22;11418;48.118;9.992;2023-05-10T03:23:51;12.10;99.90
22503;DHT22;11418;48.118;9.992;2023-05-10T03:27:55;12.00;99.90
22503;DHT22;11418;48.118;9.992;2023-05-10T03:32:00;12.00;99.90
22503;DHT22;11418;48.118;9.992;2023-05-10T03:36:00;12.10;99.90
22503;DHT22;11418;48.118;9.992;2023-05-10T03:40:12;12.10;99.90
22503;DHT22;11418;48.118;9.992;2023-05-10T03:44:18;12.00;99.90
22503;DHT22;11418;48.118;9.992;2023-05-10T03:48:25;11.90;99.90
22503;DHT22;11418;48.118;9.992;2023-05-10T03:52:25;11.90;99.90
22503;DHT22;11418;48.118;9.992;2023-05-10T03:56:26;11.70;99.90
22503;DHT22;11418;48.118;9.992;2023-05-10T04:00:29;11.60;99.90
22503;DHT22;11418;48.118;9.992;2023-05-10T04:04:43;11.40;99.90
22503;DHT22;11418;48.118;9.992;2023-05-10T04:09:22;11.10;99.90
22503;DHT22;11418;48.118;9.992;2023-05-10T04:13:34;10.70;99.90
22503;DHT22;11418;48.118;9.992;2023-05-10T04:17:40;10.60;99.90
22503;DHT22;11418;48.118;9.992;2023-05-10T04:21:41;10.60;99.90
22503;DHT22;11418;48.118;9.992;2023-05-10T04:25:42;10.80;99.90
22503;DHT22;11418;48.118;9.992;2023-05-10T04:29:45;10.90;99.90
22503;DHT22;11418;48.118;9.992;2023-05-10T04:33:49;11.10;99.90
22503;DHT22;11418;48.118;9.992;2023-05-10T04:37:56;11.30;99.90
22503;DHT22;11418;48.118;9.992;2023-05-10T04:42:08;11.50;99.90
22503;DHT22;11418;48.118;9.992;2023-05-10T04:46:09;11.60;99.90
22503;DHT22;11418;48.118;9.992;2023-05-10T04:50:10;11.60;99.90
22503;DHT22;11418;48.118;9.992;2023-05-10T04:54:29;11.70;99.90
22503;DHT22;11418;48.118;9.992;2023-05-10T04:58:35;11.70;99.90
22503;DHT22;11418;48.118;9.992;2023-05-10T05:02:36;11.80;99.90
22503;DHT22;11418;48.118;9.992;2023-05-10T05:06:36;11.90;99.90
22503;DHT22;11418;48.118;9.992;2023-05-10T05:15:01;12.10;99.90
22503;DHT22;11418;48.118;9.992;2023-05-10T05:19:07;12.30;99.90
22503;DHT22;11418;48.118;9.992;2023-05-10T05:23:11;12.50;99.90
22503;DHT22;11418;48.118;9.992;2023-05-10T05:27:24;12.70;99.90
22503;DHT22;11418;48.118;9.992;2023-05-10T05:31:26;12.80;99.90
22503;DHT22;11418;48.118;9.992;2023-05-10T05:35:33;12.90;99.90
22503;DHT22;11418;48.118;9.992;2023-05-10T05:39:36;13.00;99.90
22503;DHT22;11418;48.118;9.992;2023-05-10T05:43:40;12.80;99.90
22503;DHT22;11418;48.118;9.992;2023-05-10T05:47:50;12.90;99.90
22503;DHT22;11418;48.118;9.992;2023-05-10T05:51:50;12.80;99.90
22503;DHT22;11418;48.118;9.992;2023-05-10T05:55:51;12.90;99.90
22503;DHT22;11418;48.118;9.992;2023-05-10T05:59:56;13.10;99.90
22503;DHT22;11418;48.118;9.992;2023-05-10T06:03:57;13.00;99.90
22503;DHT22;11418;48.118;9.992;2023-05-10T06:08:06;13.20;99.90
22503;DHT22;11418;48.118;9.992;2023-05-10T06:12:06;13.40;99.90
22503;DHT22;11418;48.118;9.992;2023-05-10T06:16:07;13.50;99.90
22503;DHT22;11418;48.118;9.992;2023-05-10T06:20:13;14.00;99.90
22503;DHT22;11418;48.118;9.992;2023-05-10T06:28:41;14.10;99.90
22503;DHT22;11418;48.118;9.992;2023-05-10T06:32:45;14.30;99.90
22503;DHT22;11418;48.118;9.992;2023-05-10T06:36:46;14.30;99.90
22503;DHT22;11418;48.118;9.992;2023-05-10T06:40:52;14.40;99.90
22503;DHT22;11418;48.118;9.992;2023-05-10T06:44:56;14.50;99.90
22503;DHT22;11418;48.118;9.992;2023-05-10T06:49:08;14.70;99.90
22503;DHT22;11418;48.118;9.992;2023-05-10T06:53:11;14.80;99.90
22503;DHT22;11418;48.118;9.992;2023-05-10T06:57:12;14.90;99.90
22503;DHT22;11418;48.118;9.992;2023-05-10T07:01:15;15.50;99.90
22503;DHT22;11418;48.118;9.992;2023-05-10T07:05:16;15.90;99.90
22503;DHT22;11418;48.118;9.992;2023-05-10T07:09:22;16.00;99.90
22503;DHT22;11418;48.118;9.992;2023-05-10T07:13:24;16.00;99.90
22503;DHT22;11418;48.118;9.992;2023-05-10T07:17:27;16.20;99.90
22503;DHT22;11418;48.118;9.992;2023-05-10T07:21:28;16.50;99.90
22503;DHT22;11418;48.118;9.992;2023-05-10T07:25:29;16.50;99.90
22503;DHT22;11418;48.118;9.992;2023-05-10T07:29:35;16.50;99.90
22503;DHT22;11418;48.118;9.992;2023-05-10T07:33:38;16.20;99.90
22503;DHT22;11418;48.118;9.992;2023-05-10T07:37:41;16.30;99.90
22503;DHT22;11418;48.118;9.992;2023-05-10T07:41:42;16.10;99.90
22503;DHT22;11418;48.118;9.992;2023-05-10T07:45:42;15.90;99.90
22503;DHT22;11418;48.118;9.992;2023-05-10T07:49:43;15.70;99.90
22503;DHT22;11418;48.118;9.992;2023-05-10T07:53:44;15.50;99.90
22503;DHT22;11418;48.118;9.992;2023-05-10T07:57:44;15.70;99.90
22503;DHT22;11418;48.118;9.992;2023-05-10T08:01:45;16.00;99.90
22503;DHT22;11418;48.118;9.992;2023-05-10T08:05:45;15.90;99.90
22503;DHT22;11418;48.118;9.992;2023-05-10T08:09:46;16.20;99.90
22503;DHT22;11418;48.118;9.992;2023-05-10T08:13:50;16.30;99.90
22503;DHT22;11418;48.118;9.992;2023-05-10T08:17:57;16.20;99.90
22503;DHT22;11418;48.118;9.992;2023-05-10T08:21:57;16.50;99.90
22503;DHT22;11418;48.118;9.992;2023-05-10T08:25:58;16.80;99.90
22503;DHT22;11418;48.118;9.992;2023-05-10T08:29:59;17.00;99.90
22503;DHT22;11418;48.118;9.992;2023-05-10T08:33:59;17.00;99.90
22503;DHT22;11418;48.118;9.992;2023-05-10T08:38:00;17.30;99.90
22503;DHT22;11418;48.118;9.992;2023-05-10T08:42:04;17.60;99.90
22503;DHT22;11418;48.118;9.992;2023-05-10T08:46:05;17.30;99.90
22503;DHT22;11418;48.118;9.992;2023-05-10T08:50:07;17.30;99.90
22503;DHT22;11418;48.118;9.992;2023-05-10T08:54:08;17.40;99.90
22503;DHT22;11418;48.118;9.992;2023-05-10T08:58:09;17.10;99.90
22503;DHT22;11418;48.118;9.992;2023-05-10T09:02:10;17.30;99.90
22503;DHT22;11418;48.118;9.992;2023-05-10T09:06:12;17.50;99.90
22503;DHT22;11418;48.118;9.992;2023-05-10T09:10:13;17.60;99.90
22503;DHT22;11418;48.118;9.992;2023-05-10T09:14:17;17.60;99.90
22503;DHT22;11418;48.118;9.992;2023-05-10T09:18:31;17.70;99.90
22503;DHT22;11418;48.118;9.992;2023-05-10T09:22:31;17.70;99.90
22503;DHT22;11418;48.118;9.992;2023-05-10T09:26:32;17.70;99.90
22503;DHT22;11418;48.118;9.992;2023-05-10T09:30:33;17.50;99.90
22503;DHT22;11418;48.118;9.992;2023-05-10T09:34:39;17.30;99.90
22503;DHT22;11418;48.118;9.992;2023-05-10T09:38:49;17.00;99.90
22503;DHT22;11418;48.118;9.992;2023-05-10T09:42:55;16.70;99.90
22503;DHT22;11418;48.118;9.992;2023-05-10T09:47:00;16.50;99.90
22503;DHT22;11418;48.118;9.992;2023-05-10T09:51:02;16.20;99.90
22503;DHT22;11418;48.118;9.992;2023-05-10T09:55:03;15.90;99.90
22503;DHT22;11418;48.118;9.992;2023-05-10T09:59:05;15.90;99.90
22503;DHT22;11418;48.118;9.992;2023-05-10T10:03:06;16.60;99.90
22503;DHT22;11418;48.118;9.992;2023-05-10T10:07:07;17.50;99.90
22503;DHT22;11418;48.118;9.992;2023-05-10T10:11:07;18.10;99.90
22503;DHT22;11418;48.118;9.992;2023-05-10T10:15:08;17.70;99.90
22503;DHT22;11418;48.118;9.992;2023-05-10T10:19:09;17.50;99.90
22503;DHT22;11418;48.118;9.992;2023-05-10T10:23:16;16.90;99.90
22503;DHT22;11418;48.118;9.992;2023-05-10T10:31:39;14.60;99.90
22503;DHT22;11418;48.118;9.992;2023-05-10T10:35:40;13.10;99.90
22503;DHT22;11418;48.118;9.992;2023-05-10T10:39:41;12.60;99.90
22503;DHT22;11418;48.118;9.992;2023-05-10T10:43:42;12.50;99.90
22503;DHT22;11418;48.118;9.992;2023-05-10T10:47:42;12.80;99.90
22503;DHT22;11418;48.118;9.992;2023-05-10T10:52:12;12.80;99.90
22503;DHT22;11418;48.118;9.992;2023-05-10T10:56:13;12.70;99.90
22503;DHT22;11418;48.118;9.992;2023-05-10T11:04:22;12.70;99.90
22503;DHT22;11418;48.118;9.992;2023-05-10T11:12:58;12.70;99.90
22503;DHT22;11418;48.118;9.992;2023-05-10T11:17:01;12.70;99.90
22503;DHT22;11418;48.118;9.992;2023-05-10T11:21:02;12.70;99.90
22503;DHT22;11418;48.118;9.992;2023-05-10T11:25:05;12.80;99.90
22503;DHT22;11418;48.118;9.992;2023-05-10T11:29:09;12.90;99.90
22503;DHT22;11418;48.118;9.992;2023-05-10T11:33:16;13.20;99.90
22503;DHT22;11418;48.118;9.992;2023-05-10T11:37:19;13.40;99.90
22503;DHT22;11418;48.118;9.992;2023-05-10T11:41:27;13.60;99.90
22503;DHT22;11418;48.118;9.992;2023-05-10T11:45:37;13.80;99.90
22503;DHT22;11418;48.118;9.992;2023-05-10T11:49:43;13.70;99.90
22503;DHT22;11418;48.118;9.992;2023-05-10T11:53:46;13.70;99.90
22503;DHT22;11418;48.118;9.992;2023-05-10T11:57:49;14.00;99.90
22503;DHT22;11418;48.118;9.992;2023-05-10T12:01:51;13.90;99.90
22503;DHT22;11418;48.118;9.992;2023-05-10T12:05:55;13.60;99.90
22503;DHT22;11418;48.118;9.992;2023-05-10T12:10:08;13.40;99.90
22503;DHT22;11418;48.118;9.992;2023-05-10T12:14:09;13.30;99.90
22503;DHT22;11418;48.118;9.992;2023-05-10T12:18:11;13.30;99.90
22503;DHT22;11418;48.118;9.992;2023-05-10T12:22:12;13.30;99.90
22503;DHT22;11418;48.118;9.992;2023-05-10T12:26:12;13.50;99.90
22503;DHT22;11418;48.118;9.992;2023-05-10T12:30:22;13.60;99.90
22503;DHT22;11418;48.118;9.992;2023-05-10T12:34:26;13.70;99.90
22503;DHT22;11418;48.118;9.992;2023-05-10T12:38:31;13.60;99.90
22503;DHT22;11418;48.118;9.992;2023-05-10T12:42:32;13.60;99.90
22503;DHT22;11418;48.118;9.992;2023-05-10T12:46:33;13.40;99.90
22503;DHT22;11418;48.118;9.992;2023-05-10T12:50:36;13.20;99.90
22503;DHT22;11418;48.118;9.992;2023-05-10T12:54:37;13.20;99.90
22503;DHT22;11418;48.118;9.992;2023-05-10T12:58:38;13.40;99.90
22503;DHT22;11418;48.118;9.992;2023-05-10T13:02:38;13.40;99.90
22503;DHT22;11418;48.118;9.992;2023-05-10T13:06:41;13.70;99.90
22503;DHT22;11418;48.118;9.992;2023-05-10T13:10:42;13.70;99.90
22503;DHT22;11418;48.118;9.992;2023-05-10T13:14:43;13.80;99.90
22503;DHT22;11418;48.118;9.992;2023-05-10T13:18:46;13.70;99.90
22503;DHT22;11418;48.118;9.992;2023-05-10T13:23:08;13.80;99.90
22503;DHT22;11418;48.118;9.992;2023-05-10T13:27:10;14.00;99.90
22503;DHT22;11418;48.118;9.992;2023-05-10T13:31:17;14.20;99.90
22503;DHT22;11418;48.118;9.992;2023-05-10T13:35:23;14.50;99.90
22503;DHT22;11418;48.118;9.992;2023-05-10T13:39:30;14.90;99.90
22503;DHT22;11418;48.118;9.992;2023-05-10T13:43:41;15.30;99.90
22503;DHT22;11418;48.118;9.992;2023-05-10T13:47:50;15.80;99.90
22503;DHT22;11418;48.118;9.992;2023-05-10T13:51:52;15.60;99.90
22503;DHT22;11418;48.118;9.992;2023-05-10T13:56:14;14.90;99.90
22503;DHT22;11418;48.118;9.992;2023-05-10T14:00:39;14.00;99.90
22503;DHT22;11418;48.118;9.992;2023-05-10T14:04:43;13.40;99.90
22503;DHT22;11418;48.118;9.992;2023-05-10T14:08:46;13.00;99.90
22503;DHT22;11418;48.118;9.992;2023-05-10T14:12:56;12.80;99.90
22503;DHT22;11418;48.118;9.992;2023-05-10T14:17:06;13.10;99.90
22503;DHT22;11418;48.118;9.992;2023-05-10T14:25:31;13.70;99.90
22503;DHT22;11418;48.118;9.992;2023-05-10T14:29:40;13.90;99.90
22503;DHT22;11418;48.118;9.992;2023-05-10T14:33:43;14.10;99.90
22503;DHT22;11418;48.118;9.992;2023-05-10T14:37:56;14.00;99.90
22503;DHT22;11418;48.118;9.992;2023-05-10T14:42:05;14.10;99.90
22503;DHT22;11418;48.118;9.992;2023-05-10T14:46:12;14.10;99.90
22503;DHT22;11418;48.118;9.992;2023-05-10T14:50:18;14.20;99.90
22503;DHT22;11418;48.118;9.992;2023-05-10T14:54:21;14.60;99.90
22503;DHT22;11418;48.118;9.992;2023-05-10T14:58:32;14.20;99.90
22503;DHT22;11418;48.118;9.992;2023-05-10T15:02:47;13.90;99.90
22503;DHT22;11418;48.118;9.992;2023-05-10T15:06:56;13.80;99.90
22503;DHT22;11418;48.118;9.992;2023-05-10T15:11:07;13.50;99.90
22503;DHT22;11418;48.118;9.992;2023-05-10T15:15:10;13.30;99.90
22503;DHT22;11418;48.118;9.992;2023-05-10T15:19:11;13.40;99.90
22503;DHT22;11418;48.118;9.992;2023-05-10T15:23:17;13.60;99.90
22503;DHT22;11418;48.118;9.992;2023-05-10T15:27:21;13.80;99.90
22503;DHT22;11418;48.118;9.992;2023-05-10T15:31:31;13.60;99.90
22503;DHT22;11418;48.118;9.992;2023-05-10T15:35:41;13.50;99.90
22503;DHT22;11418;48.118;9.992;2023-05-10T15:39:42;13.50;99.90
22503;DHT22;11418;48.118;9.992;2023-05-10T15:43:48;13.60;99.90
22503;DHT22;11418;48.118;9.992;2023-05-10T15:47:49;13.70;99.90
22503;DHT22;11418;48.118;9.992;2023-05-10T15:51:53;13.80;99.90
22503;DHT22;11418;48.118;9.992;2023-05-10T15:55:56;14.00;99.90
22503;DHT22;11418;48.118;9.992;2023-05-10T15:59:57;14.10;99.90
22503;DHT22;11418;48.118;9.992;2023-05-10T16:04:01;13.90;99.90
22503;DHT22;11418;48.118;9.992;2023-05-10T16:08:10;13.90;99.90
22503;DHT22;11418;48.118;9.992;2023-05-10T16:12:29;13.80;99.90
22503;DHT22;11418;48.118;9.992;2023-05-10T16:16:53;13.80;99.90
22503;DHT22;11418;48.118;9.992;2023-05-10T16:20:56;13.90;99.90
22503;DHT22;11418;48.118;9.992;2023-05-10T16:25:01;13.90;99.90
22503;DHT22;11418;48.118;9.992;2023-05-10T16:29:14;13.80;99.90
22503;DHT22;11418;48.118;9.992;2023-05-10T16:33:15;13.70;99.90
22503;DHT22;11418;48.118;9.992;2023-05-10T16:37:21;13.50;99.90
22503;DHT22;11418;48.118;9.992;2023-05-10T16:41:25;13.30;99.90
22503;DHT22;11418;48.118;9.992;2023-05-10T16:45:26;13.30;99.90
22503;DHT22;11418;48.118;9.992;2023-05-10T16:49:34;13.40;99.90
22503;DHT22;11418;48.118;9.992;2023-05-10T16:53:37;13.30;99.90
22503;DHT22;11418;48.118;9.992;2023-05-10T16:57:41;13.20;99.90
22503;DHT22;11418;48.118;9.992;2023-05-10T17:01:49;13.00;99.90
22503;DHT22;11418;48.118;9.992;2023-05-10T17:06:04;13.20;99.90
22503;DHT22;11418;48.118;9.992;2023-05-10T17:10:10;13.00;99.90
22503;DHT22;11418;48.118;9.992;2023-05-10T17:14:17;13.00;99.90
22503;DHT22;11418;48.118;9.992;2023-05-10T17:18:26;12.80;99.90
22503;DHT22;11418;48.118;9.992;2023-05-10T17:22:27;12.50;99.90
22503;DHT22;11418;48.118;9.992;2023-05-10T17:26:49;12.50;99.90
22503;DHT22;11418;48.118;9.992;2023-05-10T17:30:59;12.30;99.90
22503;DHT22;11418;48.118;9.992;2023-05-10T17:35:08;12.30;99.90
22503;DHT22;11418;48.118;9.992;2023-05-10T17:43:53;12.10;99.90
22503;DHT22;11418;48.118;9.992;2023-05-10T17:47:59;11.90;99.90
22503;DHT22;11418;48.118;9.992;2023-05-10T17:52:16;11.70;99.90
22503;DHT22;11418;48.118;9.992;2023-05-10T18:01:03;11.70;99.90
22503;DHT22;11418;48.118;9.992;2023-05-10T18:05:09;11.60;99.90
22503;DHT22;11418;48.118;9.992;2023-05-10T18:09:13;11.50;99.90
22503;DHT22;11418;48.118;9.992;2023-05-10T18:13:18;11.40;99.90
22503;DHT22;11418;48.118;9.992;2023-05-10T18:17:24;11.10;99.90
22503;DHT22;11418;48.118;9.992;2023-05-10T18:25:39;10.60;99.90
22503;DHT22;11418;48.118;9.992;2023-05-10T18:29:39;10.40;99.90
22503;DHT22;11418;48.118;9.992;2023-05-10T18:34:03;10.40;99.90
22503;DHT22;11418;48.118;9.992;2023-05-10T18:38:09;10.10;99.90
22503;DHT22;11418;48.118;9.992;2023-05-10T18:42:11;9.80;99.90
22503;DHT22;11418;48.118;9.992;2023-05-10T18:46:21;9.80;99.90
22503;DHT22;11418;48.118;9.992;2023-05-10T18:50:22;10.00;99.90
22503;DHT22;11418;48.118;9.992;2023-05-10T18:54:27;10.00;99.90
22503;DHT22;11418;48.118;9.992;2023-05-10T19:02:40;9.90;99.90
22503;DHT22;11418;48.118;9.992;2023-05-10T19:06:44;9.80;99.90
22503;DHT22;11418;48.118;9.992;2023-05-10T19:10:50;9.70;99.90
22503;DHT22;11418;48.118;9.992;2023-05-10T19:14:51;9.80;99.90
22503;DHT22;11418;48.118;9.992;2023-05-10T19:19:13;9.70;99.90
22503;DHT22;11418;48.118;9.992;2023-05-10T19:23:22;9.80;99.90
22503;DHT22;11418;48.118;9.992;2023-05-10T19:27:33;9.70;99.90
22503;DHT22;11418;48.118;9.992;2023-05-10T19:31:37;9.60;99.90
22503;DHT22;11418;48.118;9.992;2023-05-10T19:35:38;9.70;99.90
22503;DHT22;11418;48.118;9.992;2023-05-10T19:39:42;9.60;99.90
22503;DHT22;11418;48.118;9.992;2023-05-10T19:43:42;9.50;99.90
22503;DHT22;11418;48.118;9.992;2023-05-10T19:47:43;9.60;99.90
22503;DHT22;11418;48.118;9.992;2023-05-10T19:51:46;9.70;99.90
22503;DHT22;11418;48.118;9.992;2023-05-10T19:55:47;9.70;99.90
22503;DHT22;11418;48.118;9.992;2023-05-10T19:59:56;9.60;99.90
22503;DHT22;11418;48.118;9.992;2023-05-10T20:03:57;9.80;99.90
22503;DHT22;11418;48.118;9.992;2023-05-10T20:07:58;9.70;99.90
22503;DHT22;11418;48.118;9.992;2023-05-10T20:12:01;9.80;99.90
22503;DHT22;11418;48.118;9.992;2023-05-10T20:16:02;9.90;99.90
22503;DHT22;11418;48.118;9.992;2023-05-10T20:20:09;9.80;99.90
22503;DHT22;11418;48.118;9.992;2023-05-10T20:24:17;9.50;99.90
22503;DHT22;11418;48.118;9.992;2023-05-10T20:28:21;9.60;99.90
22503;DHT22;11418;48.118;9.992;2023-05-10T20:32:22;10.10;99.90
22503;DHT22;11418;48.118;9.992;2023-05-10T20:36:28;9.90;99.90
22503;DHT22;11418;48.118;9.992;2023-05-10T20:40:32;9.50;99.90
22503;DHT22;11418;48.118;9.992;2023-05-10T20:44:33;9.90;99.90
22503;DHT22;11418;48.118;9.992;2023-05-10T20:48:36;9.90;99.90
22503;DHT22;11418;48.118;9.992;2023-05-10T20:52:37;9.60;99.90
22503;DHT22;11418;48.118;9.992;2023-05-10T20:56:47;9.50;99.90
22503;DHT22;11418;48.118;9.992;2023-05-10T21:00:50;9.60;99.90
22503;DHT22;11418;48.118;9.992;2023-05-10T21:04:51;9.50;99.90
22503;DHT22;11418;48.118;9.992;2023-05-10T21:08:55;9.50;99.90
22503;DHT22;11418;48.118;9.992;2023-05-10T21:12:58;9.40;99.90
22503;DHT22;11418;48.118;9.992;2023-05-10T21:17:02;9.40;99.90
22503;DHT22;11418;48.118;9.992;2023-05-10T21:21:05;9.40;99.90
22503;DHT22;11418;48.118;9.992;2023-05-10T21:25:06;9.40;99.90
22503;DHT22;11418;48.118;9.992;2023-05-10T21:29:06;9.40;99.90
22503;DHT22;11418;48.118;9.992;2023-05-10T21:33:07;9.40;99.90
22503;DHT22;11418;48.118;9.992;2023-05-10T21:37:13;9.20;99.90
22503;DHT22;11418;48.118;9.992;2023-05-10T21:41:17;9.50;99.90
22503;DHT22;11418;48.118;9.992;2023-05-10T21:45:18;9.80;99.90
22503;DHT22;11418;48.118;9.992;2023-05-10T21:49:26;9.90;99.90
22503;DHT22;11418;48.118;9.992;2023-05-10T21:53:27;9.80;99.90
22503;DHT22;11418;48.118;9.992;2023-05-10T21:57:35;9.60;99.90
22503;DHT22;11418;48.118;9.992;2023-05-10T22:01:38;9.50;99.90
22503;DHT22;11418;48.118;9.992;2023-05-10T22:05:39;9.30;99.90
22503;DHT22;11418;48.118;9.992;2023-05-10T22:09:40;9.30;99.90
22503;DHT22;11418;48.118;9.992;2023-05-10T22:13:43;9.30;99.90
22503;DHT22;11418;48.118;9.992;2023-05-10T22:17:44;9.30;99.90
22503;DHT22;11418;48.118;9.992;2023-05-10T22:21:45;9.40;99.90
22503;DHT22;11418;48.118;9.992;2023-05-10T22:26:03;9.50;99.90
22503;DHT22;11418;48.118;9.992;2023-05-10T22:30:05;9.50;99.90
22503;DHT22;11418;48.118;9.992;2023-05-10T22:34:06;9.50;99.90
22503;DHT22;11418;48.118;9.992;2023-05-10T22:38:30;9.50;99.90
22503;DHT22;11418;48.118;9.992;2023-05-10T22:42:32;9.60;99.90
22503;DHT22;11418;48.118;9.992;2023-05-10T22:46:39;9.50;99.90
22503;DHT22;11418;48.118;9.992;2023-05-10T22:50:39;9.50;99.90
22503;DHT22;11418;48.118;9.992;2023-05-10T22:54:49;9.50;99.90
22503;DHT22;11418;48.118;9.992;2023-05-10T22:58:50;9.50;99.90
22503;DHT22;11418;48.118;9.992;2023-05-10T23:02:50;9.60;99.90
22503;DHT22;11418;48.118;9.992;2023-05-10T23:06:55;9.50;99.90
22503;DHT22;11418;48.118;9.992;2023-05-10T23:11:01;9.50;99.90
22503;DHT22;11418;48.118;9.992;2023-05-10T23:15:04;9.50;99.90
22503;DHT22;11418;48.118;9.992;2023-05-10T23:19:08;9.60;99.90
22503;DHT22;11418;48.118;9.992;2023-05-10T23:23:14;9.50;99.90
22503;DHT22;11418;48.118;9.992;2023-05-10T23:27:21;9.50;99.90
22503;DHT22;11418;48.118;9.992;2023-05-10T23:31:21;9.60;99.90
22503;DHT22;11418;48.118;9.992;2023-05-10T23:35:22;9.60;99.90
22503;DHT22;11418;48.118;9.992;2023-05-10T23:39:43;9.60;99.90
22503;DHT22;11418;48.118;9.992;2023-05-10T23:43:47;9.60;99.90
22503;DHT22;11418;48.118;9.992;2023-05-10T23:47:59;9.80;99.90
22503;DHT22;11418;48.118;9.992;2023-05-10T23:52:09;9.70;99.90
22503;DHT22;11418;48.118;9.992;2023-05-10T23:56:15;9.50;99.90
